Time;durP1;ratioP1;P1;durP2;ratioP2;P2;SDS_P1;SDS_P2;PMS_P1;PMS_P2;Temp;Humidity;BMP_temperature;BMP_pressure;BME280_temperature;BME280_humidity;BME280_pressure;Samples;Min_cycle;Max_cycle;Signal;HPM_P1;HPM_P2
2023/03/21 00:00:21;;;;;;;5.30;4.90;;;;;;;9.29;94.77;96925.97;5090059;28;20224;-78
2023/03/21 00:02:46;;;;;;;5.00;4.63;;;;;;;9.33;94.51;96925.31;5077371;28;20220;-78
2023/03/21 00:05:11;;;;;;;5.43;5.03;;;;;;;9.29;94.58;96929.38;5095949;28;20184;-78
2023/03/21 00:07:37;;;;;;;6.27;5.03;;;;;;;9.29;94.57;96923.34;5096448;28;20199;-78
2023/03/21 00:10:03;;;;;;;6.93;6.33;;;;;;;9.28;96.67;96924.34;5095359;28;20188;-78
2023/03/21 00:12:31;;;;;;;6.10;5.67;;;;;;;9.22;100.00;96917.38;5090633;28;20177;-78
2023/03/21 00:15:03;;;;;;;6.77;6.27;;;;;;;9.26;100.00;96921.13;5075600;28;20216;-78
2023/03/21 00:17:31;;;;;;;6.27;5.77;;;;;;;9.19;100.00;96919.38;5088413;28;20181;-78
2023/03/21 00:19:57;;;;;;;5.07;4.67;;;;;;;9.20;100.00;96907.09;5079010;28;20189;-78
2023/03/21 00:22:22;;;;;;;6.80;6.07;;;;;;;9.12;100.00;96910.81;5091508;28;20181;-78
2023/03/21 00:24:49;;;;;;;5.63;5.23;;;;;;;9.11;100.00;96918.88;5075352;28;20212;-78
2023/03/21 00:27:14;;;;;;;5.93;5.43;;;;;;;9.18;100.00;96917.81;5075337;28;20240;-78
2023/03/21 00:29:40;;;;;;;5.23;4.93;;;;;;;9.12;100.00;96910.00;5074988;28;20201;-78
2023/03/21 00:32:05;;;;;;;6.17;5.77;;;;;;;9.17;100.00;96905.75;5076158;28;20189;-78
2023/03/21 00:34:32;;;;;;;5.93;5.53;;;;;;;9.21;100.00;96905.28;5075152;28;20227;-78
2023/03/21 00:36:57;;;;;;;7.33;6.83;;;;;;;9.23;100.00;96898.03;5075292;28;20241;-78
2023/03/21 00:39:23;;;;;;;6.33;5.73;;;;;;;9.13;100.00;96899.34;5074612;28;20282;-78
2023/03/21 00:41:48;;;;;;;5.80;5.30;;;;;;;9.25;100.00;96899.41;5074820;28;20702;-78
2023/03/21 00:44:14;;;;;;;4.93;4.53;;;;;;;9.25;100.00;96896.81;5075804;28;20660;-78
2023/03/21 00:46:40;;;;;;;5.30;4.90;;;;;;;9.30;100.00;96890.94;5079231;28;20668;-78
2023/03/21 00:49:05;;;;;;;4.70;4.33;;;;;;;9.31;100.00;96889.91;5086940;28;20234;-77
2023/03/21 00:51:31;;;;;;;5.20;4.67;;;;;;;9.18;100.00;96883.00;5056963;28;20232;-78
2023/03/21 00:53:57;;;;;;;5.20;4.80;;;;;;;9.17;100.00;96881.41;5066872;28;20209;-78
2023/03/21 00:56:23;;;;;;;5.53;5.03;;;;;;;9.24;99.79;96879.53;5089899;28;20272;-78
2023/03/21 00:58:50;;;;;;;5.47;5.07;;;;;;;9.26;98.85;96879.28;5074499;28;20654;-78
2023/03/21 01:01:16;;;;;;;5.30;4.87;;;;;;;9.34;98.99;96877.22;5082794;28;20176;-77
2023/03/21 01:03:46;;;;;;;5.97;5.37;;;;;;;9.35;99.12;96878.03;5082353;28;20185;-77
2023/03/21 01:06:12;;;;;;;5.53;5.03;;;;;;;9.33;100.00;96874.81;5090833;28;20577;-78
2023/03/21 01:08:42;;;;;;;5.17;4.80;;;;;;;9.26;100.00;96871.44;5093527;28;20185;-78
2023/03/21 01:11:10;;;;;;;5.37;4.90;;;;;;;9.24;100.00;96868.28;5094602;28;20267;-77
2023/03/21 01:13:36;;;;;;;5.50;5.10;;;;;;;9.25;100.00;96873.25;5082841;28;20196;-78
2023/03/21 01:16:04;;;;;;;5.27;4.87;;;;;;;9.26;100.00;96871.44;5088570;28;20180;-78
2023/03/21 01:18:30;;;;;;;5.50;5.10;;;;;;;9.19;100.00;96876.78;5094020;28;20208;-79
2023/03/21 01:20:59;;;;;;;5.07;4.67;;;;;;;9.11;100.00;96866.56;5094366;28;20177;-77
2023/03/21 01:23:26;;;;;;;5.87;4.83;;;;;;;9.16;100.00;96871.94;5084641;28;20189;-78
2023/03/21 01:25:53;;;;;;;4.90;4.60;;;;;;;9.35;100.00;96868.38;5073931;28;20303;-77
2023/03/21 01:28:19;;;;;;;5.17;4.77;;;;;;;9.38;99.82;96862.69;5056031;28;20193;-78
2023/03/21 01:30:49;;;;;;;5.10;4.70;;;;;;;9.38;100.00;96864.50;5093424;28;20191;-77
2023/03/21 01:33:16;;;;;;;4.57;4.17;;;;;;;9.26;100.00;96867.03;5073738;28;20181;-77
2023/03/21 01:35:42;;;;;;;4.97;4.60;;;;;;;9.42;100.00;96863.84;5080842;28;21742;-77
2023/03/21 01:38:08;;;;;;;5.00;4.47;;;;;;;9.23;100.00;96867.47;5073767;28;20201;-77
2023/03/21 01:40:34;;;;;;;5.13;4.67;;;;;;;9.11;100.00;96864.75;5074300;28;20327;-79
2023/03/21 01:43:00;;;;;;;4.47;4.17;;;;;;;9.10;100.00;96863.16;5090118;28;20180;-78
2023/03/21 01:46:03;;;;;;;4.63;4.23;;;;;;;9.12;100.00;96862.94;5092542;28;20626;-78
2023/03/21 01:48:28;;;;;;;5.37;4.87;;;;;;;9.09;100.00;96861.53;5093792;28;20636;-78
2023/03/21 01:50:54;;;;;;;4.87;4.53;;;;;;;9.08;100.00;96857.31;5093538;28;20251;-78
2023/03/21 01:53:23;;;;;;;4.53;4.20;;;;;;;9.09;100.00;96856.31;5074124;28;20181;-78
2023/03/21 01:55:48;;;;;;;5.67;5.17;;;;;;;9.14;100.00;96853.84;5073868;28;20656;-78
2023/03/21 01:58:17;;;;;;;5.70;5.30;;;;;;;9.07;100.00;96855.75;5073450;28;20205;-78
2023/03/21 02:00:45;;;;;;;5.47;4.97;;;;;;;9.10;100.00;96859.72;5073633;28;20188;-78
2023/03/21 02:03:15;;;;;;;5.13;4.73;;;;;;;9.08;100.00;96843.47;5072379;28;20195;-78
2023/03/21 02:05:53;;;;;;;5.80;5.20;;;;;;;8.99;100.00;96848.16;5093418;28;20173;-78
2023/03/21 02:08:19;;;;;;;5.40;4.90;;;;;;;9.03;100.00;96843.28;5093599;28;20189;-77
2023/03/21 02:10:47;;;;;;;5.27;4.87;;;;;;;8.98;100.00;96837.91;5093397;28;20334;-78
2023/03/21 02:13:13;;;;;;;5.23;4.83;;;;;;;9.05;100.00;96833.44;5076067;28;20189;-78
2023/03/21 02:15:42;;;;;;;4.40;4.10;;;;;;;9.00;100.00;96838.50;5088988;28;20195;-78
2023/03/21 02:18:19;;;;;;;5.50;5.00;;;;;;;9.01;100.00;96829.66;5062551;28;20205;-78
2023/03/21 02:21:16;;;;;;;5.57;4.83;;;;;;;9.04;100.00;96826.59;5073021;28;20215;-78
2023/03/21 02:24:10;;;;;;;4.90;4.50;;;;;;;8.96;100.00;96837.34;5081608;28;20260;-78
2023/03/21 02:26:58;;;;;;;5.27;4.87;;;;;;;8.94;100.00;96829.72;5092601;28;20220;-79
2023/03/21 02:29:44;;;;;;;5.50;5.03;;;;;;;8.88;100.00;96832.38;5077734;28;20265;-79
2023/03/21 02:32:31;;;;;;;5.13;4.73;;;;;;;8.89;100.00;96829.56;5074050;28;20653;-78
2023/03/21 02:35:31;;;;;;;5.70;5.30;;;;;;;8.92;100.00;96828.31;5060259;28;20181;-79
2023/03/21 02:38:04;;;;;;;5.43;5.03;;;;;;;9.00;100.00;96826.25;5072553;28;20209;-79
2023/03/21 02:40:36;;;;;;;7.03;5.03;;;;;;;8.92;100.00;96825.69;5075042;28;20177;-78
2023/03/21 02:43:16;;;;;;;5.37;4.97;;;;;;;9.00;100.00;96822.81;5061294;28;20209;-78
2023/03/21 02:45:45;;;;;;;4.83;4.37;;;;;;;9.04;100.00;96821.38;5074551;28;20211;-79
2023/03/21 02:48:21;;;;;;;4.87;4.47;;;;;;;8.95;100.00;96820.06;5072950;28;20192;-78
2023/03/21 02:50:52;;;;;;;5.10;4.70;;;;;;;8.97;100.00;96820.66;5072086;28;20184;-78
2023/03/21 02:53:21;;;;;;;5.83;4.97;;;;;;;8.92;100.00;96825.69;5072380;28;20598;-78
2023/03/21 02:55:48;;;;;;;5.57;4.97;;;;;;;8.86;100.00;96823.97;5072538;28;20193;-78
2023/03/21 02:58:17;;;;;;;5.57;5.07;;;;;;;8.85;100.00;96814.53;5077874;28;20196;-78
2023/03/21 03:00:44;;;;;;;7.07;5.17;;;;;;;8.84;100.00;96818.97;5082885;28;20189;-78
2023/03/21 03:03:11;;;;;;;5.77;5.30;;;;;;;8.97;100.00;96812.81;5086247;28;20601;-78
2023/03/21 03:05:47;;;;;;;6.97;5.27;;;;;;;8.95;100.00;96820.88;5072464;28;20178;-78
2023/03/21 03:08:12;;;;;;;5.73;5.33;;;;;;;9.06;100.00;96811.50;5073564;28;20180;-78
2023/03/21 03:10:56;;;;;;;5.83;5.33;;;;;;;8.83;100.00;96819.97;5072766;28;20549;-78
2023/03/21 03:14:15;;;;;;;5.83;5.33;;;;;;;8.75;100.00;96807.16;5077221;28;20625;-78
2023/03/21 03:16:49;;;;;;;5.97;5.47;;;;;;;8.83;100.00;96806.09;5076181;28;20602;-78
2023/03/21 03:19:24;;;;;;;5.90;5.37;;;;;;;8.81;100.00;96803.69;5086874;28;20207;-78
2023/03/21 03:22:25;;;;;;;6.70;6.03;;;;;;;8.77;100.00;96813.78;5096639;28;20179;-78
2023/03/21 03:25:04;;;;;;;6.80;6.17;;;;;;;8.71;100.00;96822.47;5087760;28;20265;-78
2023/03/21 03:27:35;;;;;;;6.37;5.87;;;;;;;8.91;100.00;96824.13;5095276;28;20223;-78
2023/03/21 03:30:04;;;;;;;6.07;5.57;;;;;;;8.82;100.00;96814.94;5096670;28;20259;-78
2023/03/21 03:32:48;;;;;;;6.17;5.77;;;;;;;8.71;100.00;96816.44;5096610;28;20649;-78
2023/03/21 03:35:16;;;;;;;6.03;5.60;;;;;;;8.71;100.00;96819.06;5083113;28;20375;-78
2023/03/21 03:37:46;;;;;;;5.97;5.57;;;;;;;8.76;100.00;96812.19;5078718;28;20189;-78
2023/03/21 03:40:17;;;;;;;5.63;5.23;;;;;;;8.70;100.00;96807.81;5088205;28;20642;-77
2023/03/21 03:42:52;;;;;;;5.70;5.30;;;;;;;8.79;100.00;96802.31;5087929;28;20580;-78
2023/03/21 03:45:22;;;;;;;6.30;5.70;;;;;;;8.76;100.00;96806.94;5095799;28;20183;-78
2023/03/21 03:48:18;;;;;;;5.90;5.50;;;;;;;8.79;100.00;96791.88;5091827;28;20268;-78
2023/03/21 03:51:25;;;;;;;6.23;5.63;;;;;;;8.87;100.00;96797.59;5087482;28;20240;-78
2023/03/21 03:54:00;;;;;;;5.87;5.57;;;;;;;8.70;100.00;96796.53;4988055;28;20208;-77
2023/03/21 03:56:27;;;;;;;5.67;5.17;;;;;;;8.77;100.00;96794.69;5085141;28;20192;-77
2023/03/21 03:58:52;;;;;;;5.77;5.37;;;;;;;8.70;100.00;96783.47;5093774;28;20261;-78
2023/03/21 04:01:18;;;;;;;5.47;5.07;;;;;;;8.69;100.00;96785.28;5077145;28;20192;-78
2023/03/21 04:03:48;;;;;;;5.80;5.33;;;;;;;8.69;100.00;96787.91;5095671;28;20176;-77
2023/03/21 04:06:13;;;;;;;5.80;5.33;;;;;;;8.69;100.00;96789.75;5093162;28;20192;-78
2023/03/21 04:08:39;;;;;;;6.00;5.57;;;;;;;8.59;100.00;96779.75;5075839;28;20258;-78
2023/03/21 04:11:05;;;;;;;6.70;6.20;;;;;;;8.67;100.00;96776.09;5092698;28;20230;-78
2023/03/21 04:13:32;;;;;;;6.13;5.33;;;;;;;8.70;100.00;96786.09;5073594;28;20188;-78
2023/03/21 04:15:57;;;;;;;6.23;5.73;;;;;;;8.67;100.00;96789.97;5075435;28;20196;-78
2023/03/21 04:18:23;;;;;;;5.57;5.17;;;;;;;8.68;100.00;96788.94;5083134;28;20197;-78
2023/03/21 04:20:50;;;;;;;6.60;5.87;;;;;;;8.59;100.00;96784.19;5075758;28;20590;-78
2023/03/21 04:23:17;;;;;;;6.13;5.47;;;;;;;8.59;100.00;96787.59;5075126;28;20298;-78
2023/03/21 04:25:43;;;;;;;5.83;5.43;;;;;;;8.58;100.00;96780.00;5075296;28;20221;-77
2023/03/21 04:28:09;;;;;;;6.63;6.13;;;;;;;8.59;100.00;96786.78;5086710;28;20185;-78
2023/03/21 04:30:35;;;;;;;6.93;6.47;;;;;;;8.68;100.00;96780.31;5087825;28;20533;-78
2023/03/21 04:33:00;;;;;;;7.73;7.23;;;;;;;8.61;100.00;96777.75;5095003;28;20187;-78
2023/03/21 04:35:27;;;;;;;7.17;6.67;;;;;;;8.50;100.00;96786.28;5075359;28;20200;-78
2023/03/21 04:37:53;;;;;;;7.47;6.73;;;;;;;8.46;100.00;96782.50;5075001;28;20674;-78
2023/03/21 04:40:19;;;;;;;6.40;6.00;;;;;;;8.47;100.00;96793.75;5075215;28;20310;-78
2023/03/21 04:42:45;;;;;;;7.40;5.90;;;;;;;8.50;100.00;96788.09;5074708;28;20266;-77
2023/03/21 04:45:11;;;;;;;9.10;6.07;;;;;;;8.36;100.00;96782.16;5074797;28;20189;-78
2023/03/21 04:47:37;;;;;;;5.67;5.17;;;;;;;8.36;100.00;96782.16;5075429;28;20188;-78
2023/03/21 04:50:02;;;;;;;5.70;5.30;;;;;;;8.34;100.00;96784.19;5094486;28;20191;-77
2023/03/21 04:52:28;;;;;;;5.77;5.37;;;;;;;8.27;100.00;96780.78;5087761;28;20272;-77
2023/03/21 04:54:53;;;;;;;6.23;5.73;;;;;;;8.18;100.00;96782.06;5075141;28;20185;-78
2023/03/21 04:57:19;;;;;;;5.47;4.97;;;;;;;8.20;100.00;96791.28;5074408;28;20178;-78
2023/03/21 04:59:44;;;;;;;5.50;4.97;;;;;;;8.14;100.00;96783.47;5090963;28;20241;-78
2023/03/21 05:02:11;;;;;;;5.27;4.87;;;;;;;8.17;100.00;96783.06;5073867;28;20193;-78
2023/03/21 05:04:37;;;;;;;6.10;5.50;;;;;;;8.21;100.00;96779.81;5094735;28;20239;-78
2023/03/21 05:07:02;;;;;;;5.60;5.17;;;;;;;8.20;100.00;96785.25;5094266;28;20189;-78
2023/03/21 05:09:28;;;;;;;6.03;5.30;;;;;;;8.23;100.00;96774.41;5061638;28;20208;-77
2023/03/21 05:11:53;;;;;;;5.60;5.00;;;;;;;8.25;100.00;96781.00;5075100;28;20672;-78
2023/03/21 05:14:22;;;;;;;5.90;5.40;;;;;;;8.32;100.00;96783.59;5074116;28;20315;-78
2023/03/21 05:16:51;;;;;;;5.43;5.03;;;;;;;8.26;100.00;96777.38;5079142;28;20301;-78
2023/03/21 05:19:19;;;;;;;6.13;5.53;;;;;;;8.21;100.00;96774.59;5080646;28;20206;-77
2023/03/21 05:21:45;;;;;;;5.63;5.10;;;;;;;8.22;100.00;96781.44;5073988;28;20657;-77
2023/03/21 05:24:14;;;;;;;5.90;5.30;;;;;;;8.19;100.00;96787.06;5074631;28;20536;-77
2023/03/21 05:26:42;;;;;;;6.50;4.90;;;;;;;8.19;100.00;96784.44;5075607;28;20837;-78
2023/03/21 05:29:08;;;;;;;5.53;5.03;;;;;;;8.26;100.00;96790.44;5094390;28;20184;-76
2023/03/21 05:31:33;;;;;;;5.40;4.90;;;;;;;8.24;100.00;96786.44;5093886;28;20264;-79
2023/03/21 05:33:59;;;;;;;5.87;5.37;;;;;;;8.26;100.00;96787.81;5078624;28;20273;-77
2023/03/21 05:36:24;;;;;;;5.77;5.27;;;;;;;8.24;100.00;96789.88;5073327;28;20181;-77
2023/03/21 05:38:50;;;;;;;5.63;5.13;;;;;;;8.17;100.00;96796.13;5073613;28;20201;-77
2023/03/21 05:41:16;;;;;;;6.17;5.67;;;;;;;8.22;100.00;96794.47;5076736;28;20275;-77
2023/03/21 05:43:42;;;;;;;5.70;5.30;;;;;;;8.23;100.00;96790.88;5073656;28;20189;-77
2023/03/21 05:46:08;;;;;;;5.70;4.60;;;;;;;8.23;100.00;96793.47;5073756;28;20192;-77
2023/03/21 05:48:34;;;;;;;6.10;5.50;;;;;;;8.26;100.00;96789.63;5073679;28;20178;-77
2023/03/21 05:51:00;;;;;;;5.03;4.63;;;;;;;8.34;100.00;96795.44;5081020;28;20211;-77
2023/03/21 05:53:25;;;;;;;6.03;5.63;;;;;;;8.31;100.00;96792.44;5074403;28;20208;-77
2023/03/21 05:55:51;;;;;;;6.40;5.37;;;;;;;8.37;100.00;96788.97;5073307;28;20181;-77
2023/03/21 05:58:16;;;;;;;5.60;5.07;;;;;;;8.37;100.00;96793.41;5073544;28;20674;-77
2023/03/21 06:00:41;;;;;;;6.27;5.77;;;;;;;8.44;100.00;96794.97;5084515;28;20263;-77
2023/03/21 06:03:07;;;;;;;7.37;6.87;;;;;;;8.49;100.00;96791.69;5093156;28;20543;-76
2023/03/21 06:05:32;;;;;;;7.20;6.60;;;;;;;8.59;100.00;96794.63;5084553;28;20181;-77
2023/03/21 06:07:57;;;;;;;8.17;7.37;;;;;;;8.41;100.00;96791.97;5083563;28;20260;-77
2023/03/21 06:10:23;;;;;;;9.17;7.90;;;;;;;8.45;100.00;96793.16;5091456;28;20187;-77
2023/03/21 06:12:48;;;;;;;7.80;7.10;;;;;;;8.42;100.00;96796.97;5093186;28;20196;-77
2023/03/21 06:15:14;;;;;;;6.27;5.67;;;;;;;8.62;100.00;96799.44;5086867;28;20239;-75
2023/03/21 06:17:39;;;;;;;6.30;5.70;;;;;;;8.50;100.00;96801.94;5072915;28;20189;-76
2023/03/21 06:20:06;;;;;;;6.40;5.73;;;;;;;8.47;100.00;96801.59;5083646;28;20176;-75
2023/03/21 06:22:33;;;;;;;8.13;7.40;;;;;;;8.73;100.00;96803.97;5072735;28;20641;-76
2023/03/21 06:24:58;;;;;;;6.23;5.43;;;;;;;8.67;100.00;96800.41;5088982;28;20184;-76
2023/03/21 06:27:24;;;;;;;5.63;5.23;;;;;;;8.67;100.00;96800.41;5072912;28;20228;-76
2023/03/21 06:29:49;;;;;;;5.93;5.33;;;;;;;8.82;100.00;96796.66;5077319;28;20180;-76
2023/03/21 06:32:15;;;;;;;6.03;5.63;;;;;;;8.72;100.00;96797.94;5072837;28;20181;-76
2023/03/21 06:34:41;;;;;;;6.93;6.33;;;;;;;8.76;100.00;96793.88;5060311;28;20254;-76
2023/03/21 06:37:06;;;;;;;6.03;5.63;;;;;;;8.77;100.00;96799.91;5092753;28;20192;-76
2023/03/21 06:39:32;;;;;;;7.13;6.43;;;;;;;8.66;100.00;96798.81;5084391;28;20274;-76
2023/03/21 06:41:58;;;;;;;6.60;5.90;;;;;;;8.66;100.00;96788.34;5072849;28;20622;-76
2023/03/21 06:44:24;;;;;;;6.93;6.43;;;;;;;8.77;100.00;96789.47;5072805;28;20189;-75
2023/03/21 06:46:50;;;;;;;8.93;8.30;;;;;;;8.75;100.00;96792.28;5091399;28;20185;-72
2023/03/21 06:49:16;;;;;;;10.17;9.40;;;;;;;8.71;100.00;96787.69;5087146;28;20268;-73
2023/03/21 06:51:42;;;;;;;17.67;11.10;;;;;;;8.68;100.00;96799.41;5059802;28;20291;-75
2023/03/21 06:54:08;;;;;;;6.33;5.83;;;;;;;8.83;100.00;96800.88;5079273;28;20325;-76
2023/03/21 06:56:34;;;;;;;6.57;6.03;;;;;;;8.80;100.00;96796.09;5078309;28;20189;-75
2023/03/21 06:58:59;;;;;;;5.27;4.87;;;;;;;8.85;100.00;96788.41;5056693;28;20201;-75
2023/03/21 07:01:26;;;;;;;5.00;4.60;;;;;;;8.92;100.00;96794.34;5092239;28;20263;-75
2023/03/21 07:03:56;;;;;;;4.90;4.50;;;;;;;8.85;100.00;96789.19;5084928;28;20229;-75
2023/03/21 07:06:22;;;;;;;5.13;4.73;;;;;;;9.13;100.00;96796.56;5084135;28;20709;-75
2023/03/21 07:08:47;;;;;;;5.07;4.67;;;;;;;9.05;99.01;96795.03;5092543;28;20244;-75
2023/03/21 07:11:12;;;;;;;5.07;4.70;;;;;;;9.44;97.34;96804.28;5091870;28;20548;-76
2023/03/21 07:13:38;;;;;;;4.80;4.50;;;;;;;9.76;94.93;96786.56;5091903;28;20204;-76
2023/03/21 07:16:04;;;;;;;5.67;5.13;;;;;;;9.89;94.00;96790.84;5089435;28;20188;-76
2023/03/21 07:18:30;;;;;;;5.73;5.03;;;;;;;10.19;91.69;96783.81;5092109;28;20211;-74
2023/03/21 07:20:56;;;;;;;6.97;6.47;;;;;;;10.23;91.60;96784.16;5092026;28;20180;-73
2023/03/21 07:23:24;;;;;;;5.87;5.37;;;;;;;10.58;89.58;96784.22;5091806;28;20224;-75
2023/03/21 07:25:50;;;;;;;5.90;5.47;;;;;;;10.58;89.32;96779.78;5085258;28;20290;-77
2023/03/21 07:28:16;;;;;;;13.30;12.40;;;;;;;10.91;87.02;96781.06;5072835;28;20186;-78
2023/03/21 07:30:43;;;;;;;21.63;20.13;;;;;;;11.05;86.51;96788.44;5073268;28;20192;-77
2023/03/21 07:33:09;;;;;;;9.07;8.47;;;;;;;11.14;87.12;96781.03;5072684;28;20181;-75
2023/03/21 07:35:36;;;;;;;14.07;13.10;;;;;;;11.23;84.94;96788.31;5079751;28;20184;-76
2023/03/21 07:38:04;;;;;;;11.57;10.77;;;;;;;11.09;85.25;96786.19;5089904;28;20262;-76
2023/03/21 07:40:31;;;;;;;11.47;10.73;;;;;;;10.73;86.25;96782.75;5091650;28;20186;-75
2023/03/21 07:42:56;;;;;;;11.53;10.83;;;;;;;10.59;87.50;96791.84;5091950;28;20234;-77
2023/03/21 07:45:24;;;;;;;13.13;12.03;;;;;;;10.81;87.08;96789.50;5089835;28;20180;-76
2023/03/21 07:47:50;;;;;;;11.87;10.97;;;;;;;10.81;87.04;96785.03;5091848;28;20662;-76
2023/03/21 07:50:16;;;;;;;10.77;9.97;;;;;;;10.94;87.09;96794.50;5083870;28;20540;-76
2023/03/21 07:52:41;;;;;;;11.57;10.77;;;;;;;11.28;84.95;96787.63;5072440;28;20264;-76
2023/03/21 07:55:07;;;;;;;13.03;12.13;;;;;;;11.52;84.12;96791.81;5079030;28;20280;-76
2023/03/21 07:57:33;;;;;;;22.10;20.70;;;;;;;11.56;83.36;96795.56;5086576;28;20172;-76
2023/03/21 07:59:58;;;;;;;9.27;8.47;;;;;;;11.61;82.96;96790.41;5095376;28;20624;-75
2023/03/21 08:02:24;;;;;;;8.53;7.83;;;;;;;11.79;81.21;96802.59;5076299;28;20200;-75
2023/03/21 08:04:50;;;;;;;7.10;6.40;;;;;;;11.72;81.32;96804.53;5081678;28;20185;-75
2023/03/21 08:07:15;;;;;;;7.20;6.43;;;;;;;11.54;81.92;96805.47;5095928;28;20185;-75
2023/03/21 08:09:42;;;;;;;8.73;8.03;;;;;;;11.57;81.65;96799.78;5088142;28;20197;-75
2023/03/21 08:12:10;;;;;;;7.27;6.57;;;;;;;11.66;81.62;96797.59;5091690;28;20188;-75
2023/03/21 08:14:36;;;;;;;9.23;8.47;;;;;;;11.82;81.47;96791.63;5073352;28;20170;-75
2023/03/21 08:17:03;;;;;;;8.37;7.57;;;;;;;11.92;81.27;96791.03;5074687;28;20212;-75
2023/03/21 08:19:29;;;;;;;10.47;9.70;;;;;;;12.06;81.25;96789.72;5076103;28;20201;-75
2023/03/21 08:21:58;;;;;;;9.33;7.80;;;;;;;11.75;82.21;96792.81;5056965;28;20197;-74
2023/03/21 08:24:25;;;;;;;10.57;6.60;;;;;;;11.86;82.39;96789.34;5058134;28;20178;-76
2023/03/21 08:26:50;;;;;;;7.97;7.27;;;;;;;11.95;82.43;96790.56;5093416;28;20224;-74
2023/03/21 08:29:16;;;;;;;7.10;6.53;;;;;;;11.94;82.25;96788.97;5086157;28;20662;-75
2023/03/21 08:31:41;;;;;;;10.47;9.77;;;;;;;12.09;79.78;96789.25;5075048;28;20193;-75
2023/03/21 08:34:07;;;;;;;12.13;11.17;;;;;;;12.03;78.48;96783.09;5074689;28;20184;-75
2023/03/21 08:36:35;;;;;;;9.10;8.50;;;;;;;12.17;78.52;96791.47;5077077;28;20642;-75
2023/03/21 08:39:04;;;;;;;9.53;8.83;;;;;;;12.23;77.82;96769.53;5075036;28;20262;-75
2023/03/21 08:41:34;;;;;;;14.83;11.20;;;;;;;12.56;77.43;96778.47;5094754;28;20192;-76
2023/03/21 08:43:59;;;;;;;9.93;9.17;;;;;;;12.66;76.21;96775.97;5078174;28;20212;-75
2023/03/21 08:46:25;;;;;;;18.83;17.73;;;;;;;12.65;74.84;96769.16;5087904;28;20525;-75
2023/03/21 08:48:50;;;;;;;17.10;16.03;;;;;;;12.75;74.62;96764.03;5086340;28;20191;-76
2023/03/21 08:51:16;;;;;;;16.90;15.87;;;;;;;12.86;72.88;96765.78;5083380;28;20185;-76
2023/03/21 08:53:42;;;;;;;33.47;31.67;;;;;;;12.79;71.83;96763.31;5075051;28;20662;-76
2023/03/21 08:56:09;;;;;;;30.67;28.90;;;;;;;12.97;70.15;96759.63;5090296;28;20174;-76
2023/03/21 08:58:35;;;;;;;28.50;26.73;;;;;;;12.77;71.27;96756.69;5075010;28;20225;-76
2023/03/21 09:01:01;;;;;;;29.10;27.37;;;;;;;12.91;71.71;96763.22;5074391;28;20227;-76
2023/03/21 09:03:26;;;;;;;33.03;31.00;;;;;;;12.98;70.74;96760.44;5087945;28;20176;-76
2023/03/21 09:05:53;;;;;;;30.87;29.07;;;;;;;12.92;71.06;96754.31;5092917;28;20180;-76
2023/03/21 09:08:22;;;;;;;24.97;23.57;;;;;;;13.14;70.21;96759.63;5094240;28;20536;-76
2023/03/21 09:10:54;;;;;;;22.67;21.37;;;;;;;13.32;68.94;96762.75;5094193;28;20246;-76
2023/03/21 09:13:20;;;;;;;15.67;14.73;;;;;;;13.18;68.97;96755.47;5091646;28;20201;-76
2023/03/21 09:15:46;;;;;;;14.83;13.97;;;;;;;12.93;67.98;96765.63;5079793;28;20180;-75
2023/03/21 09:18:16;;;;;;;11.13;10.50;;;;;;;13.22;67.42;96762.63;5094106;28;20269;-75
2023/03/21 09:20:44;;;;;;;8.87;8.33;;;;;;;13.28;64.37;96766.91;5094039;28;20187;-76
2023/03/21 09:23:11;;;;;;;10.97;10.37;;;;;;;13.23;64.74;96763.44;5093108;28;20223;-76
2023/03/21 09:25:37;;;;;;;25.50;23.90;;;;;;;13.48;63.31;96765.59;5092366;28;20621;-76
2023/03/21 09:28:04;;;;;;;13.53;12.63;;;;;;;13.59;63.85;96775.22;5093602;28;20261;-76
2023/03/21 09:30:32;;;;;;;12.77;11.97;;;;;;;13.29;65.33;96768.53;5081325;28;20661;-77
2023/03/21 09:32:59;;;;;;;13.10;12.20;;;;;;;13.30;65.68;96766.69;5055623;28;20272;-76
2023/03/21 09:35:26;;;;;;;25.83;24.20;;;;;;;13.38;63.99;96765.44;5073605;28;20188;-76
2023/03/21 09:37:52;;;;;;;16.80;15.80;;;;;;;13.58;63.28;96757.81;5073804;28;20517;-76
2023/03/21 09:40:19;;;;;;;18.73;17.53;;;;;;;13.32;65.23;96768.00;5090495;28;20191;-77
2023/03/21 09:43:05;;;;;;;20.20;19.07;;;;;;;13.29;66.50;96757.19;5093133;28;20180;-76
2023/03/21 09:45:36;;;;;;;14.33;13.53;;;;;;;13.17;65.95;96765.19;5067943;28;20292;-78
2023/03/21 09:48:06;;;;;;;13.97;13.17;;;;;;;13.38;65.79;96758.34;5073425;28;20231;-76
2023/03/21 09:50:37;;;;;;;9.73;9.13;;;;;;;13.45;64.93;96756.34;5085956;28;20180;-75
2023/03/21 09:53:10;;;;;;;10.50;9.83;;;;;;;13.64;63.85;96751.56;5093092;28;20538;-76
2023/03/21 09:55:38;;;;;;;7.03;6.57;;;;;;;13.74;63.71;96752.47;5077166;28;20173;-76
2023/03/21 09:58:19;;;;;;;6.07;5.67;;;;;;;13.94;64.53;96748.44;5092212;28;20200;-76
2023/03/21 10:00:52;;;;;;;6.20;5.77;;;;;;;14.10;64.28;96750.97;5059139;28;20194;-76
2023/03/21 10:03:37;;;;;;;5.07;4.67;;;;;;;14.18;62.91;96741.81;5066527;28;20176;-75
2023/03/21 10:06:12;;;;;;;6.70;6.20;;;;;;;14.17;62.04;96742.88;5071113;28;20192;-76
2023/03/21 10:08:44;;;;;;;11.53;10.73;;;;;;;13.97;62.74;96740.84;5087641;28;20182;-75
2023/03/21 10:11:21;;;;;;;21.43;20.27;;;;;;;14.11;59.79;96730.69;5092818;28;20241;-75
2023/03/21 10:14:22;;;;;;;16.17;15.13;;;;;;;14.28;61.14;96733.22;5093048;28;20652;-75
2023/03/21 10:16:56;;;;;;;16.77;15.87;;;;;;;14.77;58.72;96732.03;5067950;28;20603;-76
2023/03/21 10:19:22;;;;;;;15.47;14.63;;;;;;;14.95;59.23;96728.97;5078581;28;20274;-76
2023/03/21 10:21:50;;;;;;;10.70;10.02;;;;;;;15.01;59.59;96726.38;5074419;28;20172;-75
2023/03/21 10:24:20;;;;;;;11.55;10.82;;;;;;;14.97;59.19;96715.53;5090843;28;20189;-76
2023/03/21 10:26:48;;;;;;;6.70;6.22;;;;;;;14.75;58.67;96717.50;5072895;28;20567;-75
2023/03/21 10:29:15;;;;;;;10.40;9.80;;;;;;;14.46;58.76;96720.47;5058719;28;20230;-76
2023/03/21 10:31:43;;;;;;;7.03;6.63;;;;;;;14.87;57.06;96715.47;5071806;28;20554;-75
2023/03/21 10:34:16;;;;;;;8.52;7.93;;;;;;;15.20;55.59;96720.41;5073087;28;20288;-76
2023/03/21 10:36:42;;;;;;;9.30;8.48;;;;;;;15.29;56.39;96723.34;5072889;28;20177;-75
2023/03/21 10:39:26;;;;;;;8.10;7.60;;;;;;;15.26;56.88;96711.47;5073088;28;20562;-76
2023/03/21 10:41:52;;;;;;;9.20;8.65;;;;;;;15.23;56.79;96711.16;5091265;28;20176;-76
2023/03/21 10:44:18;;;;;;;9.63;8.90;;;;;;;15.12;56.96;96712.97;5093161;28;20185;-75
2023/03/21 10:46:55;;;;;;;9.88;9.15;;;;;;;15.24;56.26;96710.13;5092594;28;20173;-75
2023/03/21 10:49:21;;;;;;;8.50;7.93;;;;;;;15.63;55.93;96711.34;5088375;28;20192;-76
2023/03/21 10:51:50;;;;;;;5.18;4.78;;;;;;;15.59;55.39;96706.84;5092430;28;20187;-76
2023/03/21 10:54:19;;;;;;;6.13;5.72;;;;;;;15.50;55.93;96705.72;5092877;28;20176;-76
2023/03/21 10:56:55;;;;;;;17.88;16.95;;;;;;;15.91;53.08;96711.94;5092637;28;20180;-75
2023/03/21 10:59:22;;;;;;;12.18;11.52;;;;;;;15.58;53.41;96708.69;5092158;28;20208;-82
2023/03/21 11:01:51;;;;;;;10.32;9.77;;;;;;;15.84;53.76;96711.38;5073387;28;20250;-76
2023/03/21 11:04:20;;;;;;;10.27;9.73;;;;;;;15.79;53.35;96712.19;5065896;28;20230;-75
2023/03/21 11:06:56;;;;;;;6.53;6.20;;;;;;;16.14;52.95;96698.22;5092500;28;20188;-75
2023/03/21 11:09:42;;;;;;;4.13;3.92;;;;;;;16.31;51.00;96711.19;5064774;28;20200;-77
2023/03/21 11:12:14;;;;;;;3.20;3.00;;;;;;;16.75;49.68;96700.88;5082634;28;20245;-76
2023/03/21 11:14:49;;;;;;;4.53;4.30;;;;;;;16.46;49.29;96696.09;5092113;28;20225;-75
2023/03/21 11:17:29;;;;;;;5.35;5.05;;;;;;;16.71;48.79;96705.13;5091697;28;20192;-76
2023/03/21 11:20:04;;;;;;;18.02;17.02;;;;;;;16.85;48.23;96696.34;5090536;28;20207;-76
2023/03/21 11:22:38;;;;;;;41.80;39.72;;;;;;;16.70;48.48;96693.72;5079820;28;20177;-76
2023/03/21 11:25:08;;;;;;;54.47;51.75;;;;;;;16.81;47.95;96695.31;5062255;28;20173;-78
2023/03/21 11:27:34;;;;;;;54.05;51.35;;;;;;;16.86;47.80;96697.16;5065031;28;20687;-81
2023/03/21 11:30:03;;;;;;;54.22;51.50;;;;;;;16.96;47.53;96691.81;5072370;28;20193;-76
2023/03/21 11:32:33;;;;;;;54.78;52.05;;;;;;;16.97;48.23;96693.41;5068881;28;20639;-76
2023/03/21 11:35:19;;;;;;;24.65;23.40;;;;;;;17.19;47.69;96687.78;5078477;28;20542;-77
2023/03/21 11:37:50;;;;;;;7.15;6.82;;;;;;;17.25;45.09;96692.00;5096051;28;20275;-75